sensor_id;sensor_type;location;lat;lon;timestamp;P1;durP1;ratioP1;P2;durP2;ratioP2
48588;SDS011;34369;51.174;6.738;2022-08-19T00:01:54;23.80;;;21.90;;
48588;SDS011;34369;51.174;6.738;2022-08-19T00:04:29;23.00;;;21.10;;
48588;SDS011;34369;51.174;6.738;2022-08-19T00:07:06;23.85;;;21.67;;
48588;SDS011;34369;51.174;6.738;2022-08-19T00:09:40;23.33;;;21.13;;
48588;SDS011;34369;51.174;6.738;2022-08-19T00:12:12;24.25;;;22.08;;
48588;SDS011;34369;51.174;6.738;2022-08-19T00:14:45;24.70;;;22.25;;
48588;SDS011;34369;51.174;6.738;2022-08-19T00:17:16;23.05;;;21.08;;
48588;SDS011;34369;51.174;6.738;2022-08-19T00:19:48;23.50;;;21.60;;
48588;SDS011;34369;51.174;6.738;2022-08-19T00:22:20;23.73;;;21.73;;
48588;SDS011;34369;51.174;6.738;2022-08-19T00:24:54;23.40;;;21.35;;
48588;SDS011;34369;51.174;6.738;2022-08-19T00:27:26;24.05;;;21.80;;
48588;SDS011;34369;51.174;6.738;2022-08-19T00:29:57;23.30;;;21.30;;
48588;SDS011;34369;51.174;6.738;2022-08-19T00:32:30;22.85;;;20.85;;
48588;SDS011;34369;51.174;6.738;2022-08-19T00:35:03;22.63;;;20.75;;
48588;SDS011;34369;51.174;6.738;2022-08-19T00:37:36;23.85;;;21.77;;
48588;SDS011;34369;51.174;6.738;2022-08-19T00:40:15;23.48;;;21.35;;
48588;SDS011;34369;51.174;6.738;2022-08-19T00:42:48;23.90;;;21.90;;
48588;SDS011;34369;51.174;6.738;2022-08-19T00:45:24;23.80;;;21.83;;
48588;SDS011;34369;51.174;6.738;2022-08-19T00:48:02;23.55;;;21.55;;
48588;SDS011;34369;51.174;6.738;2022-08-19T00:50:35;24.88;;;22.77;;
48588;SDS011;34369;51.174;6.738;2022-08-19T00:53:07;24.83;;;22.88;;
48588;SDS011;34369;51.174;6.738;2022-08-19T00:55:41;22.95;;;21.05;;
48588;SDS011;34369;51.174;6.738;2022-08-19T00:58:17;25.55;;;23.25;;
48588;SDS011;34369;51.174;6.738;2022-08-19T01:00:52;25.65;;;23.48;;
48588;SDS011;34369;51.174;6.738;2022-08-19T01:03:24;28.50;;;23.55;;
48588;SDS011;34369;51.174;6.738;2022-08-19T01:05:56;24.73;;;22.52;;
48588;SDS011;34369;51.174;6.738;2022-08-19T01:08:28;25.67;;;23.58;;
48588;SDS011;34369;51.174;6.738;2022-08-19T01:11:01;25.35;;;23.25;;
48588;SDS011;34369;51.174;6.738;2022-08-19T01:13:33;24.90;;;22.80;;
48588;SDS011;34369;51.174;6.738;2022-08-19T01:16:06;23.45;;;21.63;;
48588;SDS011;34369;51.174;6.738;2022-08-19T01:18:41;24.97;;;22.80;;
48588;SDS011;34369;51.174;6.738;2022-08-19T01:21:18;24.85;;;22.65;;
48588;SDS011;34369;51.174;6.738;2022-08-19T01:24:00;26.00;;;23.90;;
48588;SDS011;34369;51.174;6.738;2022-08-19T01:26:37;25.15;;;23.05;;
48588;SDS011;34369;51.174;6.738;2022-08-19T01:29:11;26.38;;;24.08;;
48588;SDS011;34369;51.174;6.738;2022-08-19T01:31:43;26.83;;;24.63;;
48588;SDS011;34369;51.174;6.738;2022-08-19T01:34:15;27.88;;;25.38;;
48588;SDS011;34369;51.174;6.738;2022-08-19T01:36:47;27.52;;;25.20;;
48588;SDS011;34369;51.174;6.738;2022-08-19T01:39:22;29.17;;;26.77;;
48588;SDS011;34369;51.174;6.738;2022-08-19T01:41:56;27.00;;;24.80;;
48588;SDS011;34369;51.174;6.738;2022-08-19T01:44:28;28.20;;;25.88;;
48588;SDS011;34369;51.174;6.738;2022-08-19T01:47:00;28.73;;;26.40;;
48588;SDS011;34369;51.174;6.738;2022-08-19T01:49:32;29.20;;;26.58;;
48588;SDS011;34369;51.174;6.738;2022-08-19T01:52:04;27.98;;;25.58;;
48588;SDS011;34369;51.174;6.738;2022-08-19T01:54:38;27.15;;;24.92;;
48588;SDS011;34369;51.174;6.738;2022-08-19T01:57:11;27.02;;;24.73;;
48588;SDS011;34369;51.174;6.738;2022-08-19T01:59:44;27.58;;;25.30;;
48588;SDS011;34369;51.174;6.738;2022-08-19T02:02:17;28.00;;;25.55;;
48588;SDS011;34369;51.174;6.738;2022-08-19T02:04:49;28.98;;;26.58;;
48588;SDS011;34369;51.174;6.738;2022-08-19T02:07:21;27.17;;;24.88;;
48588;SDS011;34369;51.174;6.738;2022-08-19T02:09:55;26.88;;;24.67;;
48588;SDS011;34369;51.174;6.738;2022-08-19T02:12:27;28.17;;;25.58;;
48588;SDS011;34369;51.174;6.738;2022-08-19T02:14:59;28.63;;;26.23;;
48588;SDS011;34369;51.174;6.738;2022-08-19T02:17:32;28.70;;;26.25;;
48588;SDS011;34369;51.174;6.738;2022-08-19T02:20:04;27.58;;;25.17;;
48588;SDS011;34369;51.174;6.738;2022-08-19T02:22:37;28.30;;;25.95;;
48588;SDS011;34369;51.174;6.738;2022-08-19T02:25:13;27.20;;;24.92;;
48588;SDS011;34369;51.174;6.738;2022-08-19T02:27:46;27.90;;;25.50;;
48588;SDS011;34369;51.174;6.738;2022-08-19T02:30:17;27.48;;;24.98;;
48588;SDS011;34369;51.174;6.738;2022-08-19T02:32:49;27.30;;;24.90;;
48588;SDS011;34369;51.174;6.738;2022-08-19T02:35:21;27.25;;;24.95;;
48588;SDS011;34369;51.174;6.738;2022-08-19T02:37:53;28.13;;;25.38;;
48588;SDS011;34369;51.174;6.738;2022-08-19T02:40:48;29.88;;;27.38;;
48588;SDS011;34369;51.174;6.738;2022-08-19T02:43:22;28.73;;;26.42;;
48588;SDS011;34369;51.174;6.738;2022-08-19T02:45:55;30.83;;;28.02;;
48588;SDS011;34369;51.174;6.738;2022-08-19T02:48:27;29.05;;;26.50;;
48588;SDS011;34369;51.174;6.738;2022-08-19T02:51:00;31.77;;;28.98;;
48588;SDS011;34369;51.174;6.738;2022-08-19T02:53:32;30.52;;;27.83;;
48588;SDS011;34369;51.174;6.738;2022-08-19T02:56:07;29.05;;;26.65;;
48588;SDS011;34369;51.174;6.738;2022-08-19T02:58:39;27.85;;;25.55;;
48588;SDS011;34369;51.174;6.738;2022-08-19T03:01:19;27.85;;;25.50;;
48588;SDS011;34369;51.174;6.738;2022-08-19T03:03:52;28.00;;;25.60;;
48588;SDS011;34369;51.174;6.738;2022-08-19T03:06:26;28.85;;;26.38;;
48588;SDS011;34369;51.174;6.738;2022-08-19T03:08:58;30.92;;;28.13;;
48588;SDS011;34369;51.174;6.738;2022-08-19T03:11:32;30.70;;;28.20;;
48588;SDS011;34369;51.174;6.738;2022-08-19T03:14:05;32.22;;;29.38;;
48588;SDS011;34369;51.174;6.738;2022-08-19T03:16:41;33.38;;;30.48;;
48588;SDS011;34369;51.174;6.738;2022-08-19T03:19:17;30.23;;;27.67;;
48588;SDS011;34369;51.174;6.738;2022-08-19T03:21:51;30.10;;;27.60;;
48588;SDS011;34369;51.174;6.738;2022-08-19T03:24:23;30.88;;;28.17;;
48588;SDS011;34369;51.174;6.738;2022-08-19T03:26:57;32.90;;;30.02;;
48588;SDS011;34369;51.174;6.738;2022-08-19T03:29:29;33.53;;;30.45;;
48588;SDS011;34369;51.174;6.738;2022-08-19T03:32:04;31.85;;;29.17;;
48588;SDS011;34369;51.174;6.738;2022-08-19T03:34:37;31.13;;;28.52;;
48588;SDS011;34369;51.174;6.738;2022-08-19T03:37:10;31.77;;;29.08;;
48588;SDS011;34369;51.174;6.738;2022-08-19T03:39:43;34.63;;;31.40;;
48588;SDS011;34369;51.174;6.738;2022-08-19T03:42:16;32.25;;;29.45;;
48588;SDS011;34369;51.174;6.738;2022-08-19T03:44:48;33.33;;;30.33;;
48588;SDS011;34369;51.174;6.738;2022-08-19T03:47:20;33.55;;;30.40;;
48588;SDS011;34369;51.174;6.738;2022-08-19T03:49:52;30.63;;;27.92;;
48588;SDS011;34369;51.174;6.738;2022-08-19T03:52:24;34.75;;;31.08;;
48588;SDS011;34369;51.174;6.738;2022-08-19T03:54:56;34.42;;;31.20;;
48588;SDS011;34369;51.174;6.738;2022-08-19T03:57:29;33.10;;;30.30;;
48588;SDS011;34369;51.174;6.738;2022-08-19T04:00:03;37.30;;;33.80;;
48588;SDS011;34369;51.174;6.738;2022-08-19T04:02:37;36.53;;;33.33;;
48588;SDS011;34369;51.174;6.738;2022-08-19T04:05:09;34.90;;;31.83;;
48588;SDS011;34369;51.174;6.738;2022-08-19T04:07:42;36.15;;;32.85;;
48588;SDS011;34369;51.174;6.738;2022-08-19T04:10:14;39.40;;;35.70;;
48588;SDS011;34369;51.174;6.738;2022-08-19T04:12:48;39.13;;;35.55;;
48588;SDS011;34369;51.174;6.738;2022-08-19T04:15:20;38.75;;;35.15;;
48588;SDS011;34369;51.174;6.738;2022-08-19T04:17:52;41.65;;;37.67;;
48588;SDS011;34369;51.174;6.738;2022-08-19T04:20:24;41.55;;;37.70;;
48588;SDS011;34369;51.174;6.738;2022-08-19T04:22:57;38.90;;;35.45;;
48588;SDS011;34369;51.174;6.738;2022-08-19T04:25:33;39.67;;;35.95;;
48588;SDS011;34369;51.174;6.738;2022-08-19T04:28:10;40.00;;;36.22;;
48588;SDS011;34369;51.174;6.738;2022-08-19T04:30:45;38.05;;;34.75;;
48588;SDS011;34369;51.174;6.738;2022-08-19T04:33:20;33.85;;;30.90;;
48588;SDS011;34369;51.174;6.738;2022-08-19T04:35:55;37.47;;;34.08;;
48588;SDS011;34369;51.174;6.738;2022-08-19T04:38:29;40.45;;;36.65;;
48588;SDS011;34369;51.174;6.738;2022-08-19T04:41:02;38.97;;;35.38;;
48588;SDS011;34369;51.174;6.738;2022-08-19T04:43:54;36.60;;;33.25;;
48588;SDS011;34369;51.174;6.738;2022-08-19T04:46:26;38.92;;;35.40;;
48588;SDS011;34369;51.174;6.738;2022-08-19T04:49:02;37.45;;;34.15;;
48588;SDS011;34369;51.174;6.738;2022-08-19T04:51:36;34.90;;;31.80;;
48588;SDS011;34369;51.174;6.738;2022-08-19T04:54:12;41.10;;;37.33;;
48588;SDS011;34369;51.174;6.738;2022-08-19T04:56:44;36.53;;;33.33;;
48588;SDS011;34369;51.174;6.738;2022-08-19T04:59:18;39.15;;;35.53;;
48588;SDS011;34369;51.174;6.738;2022-08-19T05:01:51;36.95;;;33.65;;
48588;SDS011;34369;51.174;6.738;2022-08-19T05:04:23;37.90;;;34.42;;
48588;SDS011;34369;51.174;6.738;2022-08-19T05:06:55;38.65;;;35.15;;
48588;SDS011;34369;51.174;6.738;2022-08-19T05:09:27;35.20;;;32.08;;
48588;SDS011;34369;51.174;6.738;2022-08-19T05:12:00;38.78;;;35.38;;
48588;SDS011;34369;51.174;6.738;2022-08-19T05:14:34;40.38;;;36.75;;
48588;SDS011;34369;51.174;6.738;2022-08-19T05:17:12;40.17;;;36.30;;
48588;SDS011;34369;51.174;6.738;2022-08-19T05:19:45;42.55;;;38.83;;
48588;SDS011;34369;51.174;6.738;2022-08-19T05:22:34;43.55;;;39.47;;
48588;SDS011;34369;51.174;6.738;2022-08-19T05:25:08;40.72;;;37.05;;
48588;SDS011;34369;51.174;6.738;2022-08-19T05:27:45;39.25;;;35.67;;
48588;SDS011;34369;51.174;6.738;2022-08-19T05:30:20;41.78;;;38.03;;
48588;SDS011;34369;51.174;6.738;2022-08-19T05:32:52;45.42;;;41.25;;
48588;SDS011;34369;51.174;6.738;2022-08-19T05:35:26;44.10;;;40.05;;
48588;SDS011;34369;51.174;6.738;2022-08-19T05:38:05;46.15;;;41.95;;
48588;SDS011;34369;51.174;6.738;2022-08-19T05:40:38;46.08;;;41.58;;
48588;SDS011;34369;51.174;6.738;2022-08-19T05:43:18;47.08;;;42.65;;
48588;SDS011;34369;51.174;6.738;2022-08-19T05:45:52;50.03;;;45.25;;
48588;SDS011;34369;51.174;6.738;2022-08-19T05:48:27;47.53;;;43.03;;
48588;SDS011;34369;51.174;6.738;2022-08-19T05:51:03;49.38;;;44.53;;
48588;SDS011;34369;51.174;6.738;2022-08-19T05:53:37;50.28;;;45.50;;
48588;SDS011;34369;51.174;6.738;2022-08-19T05:56:10;46.63;;;42.20;;
48588;SDS011;34369;51.174;6.738;2022-08-19T06:01:20;44.50;;;40.20;;
48588;SDS011;34369;51.174;6.738;2022-08-19T06:03:53;48.03;;;43.53;;
48588;SDS011;34369;51.174;6.738;2022-08-19T06:06:28;48.63;;;43.38;;
48588;SDS011;34369;51.174;6.738;2022-08-19T06:09:04;49.13;;;44.40;;
48588;SDS011;34369;51.174;6.738;2022-08-19T06:14:16;45.97;;;41.65;;
48588;SDS011;34369;51.174;6.738;2022-08-19T06:16:53;50.33;;;45.33;;
48588;SDS011;34369;51.174;6.738;2022-08-19T06:19:27;48.58;;;43.72;;
48588;SDS011;34369;51.174;6.738;2022-08-19T06:22:01;46.38;;;41.90;;
48588;SDS011;34369;51.174;6.738;2022-08-19T06:24:36;43.85;;;39.58;;
48588;SDS011;34369;51.174;6.738;2022-08-19T06:27:09;48.03;;;43.17;;
48588;SDS011;34369;51.174;6.738;2022-08-19T06:29:42;46.50;;;42.00;;
48588;SDS011;34369;51.174;6.738;2022-08-19T06:32:17;44.97;;;40.45;;
48588;SDS011;34369;51.174;6.738;2022-08-19T06:34:49;43.63;;;39.38;;
48588;SDS011;34369;51.174;6.738;2022-08-19T06:37:21;46.08;;;41.60;;
48588;SDS011;34369;51.174;6.738;2022-08-19T06:39:53;44.67;;;40.35;;
48588;SDS011;34369;51.174;6.738;2022-08-19T06:42:25;45.15;;;40.65;;
48588;SDS011;34369;51.174;6.738;2022-08-19T06:44:57;44.95;;;40.35;;
48588;SDS011;34369;51.174;6.738;2022-08-19T06:47:33;45.30;;;40.97;;
48588;SDS011;34369;51.174;6.738;2022-08-19T06:50:06;45.58;;;41.17;;
48588;SDS011;34369;51.174;6.738;2022-08-19T06:52:39;45.25;;;40.55;;
48588;SDS011;34369;51.174;6.738;2022-08-19T06:55:11;42.90;;;38.65;;
48588;SDS011;34369;51.174;6.738;2022-08-19T06:57:43;44.95;;;40.55;;
48588;SDS011;34369;51.174;6.738;2022-08-19T07:00:16;42.63;;;38.38;;
48588;SDS011;34369;51.174;6.738;2022-08-19T07:02:49;43.80;;;39.30;;
48588;SDS011;34369;51.174;6.738;2022-08-19T07:05:22;42.75;;;38.63;;
48588;SDS011;34369;51.174;6.738;2022-08-19T07:07:54;43.00;;;38.78;;
48588;SDS011;34369;51.174;6.738;2022-08-19T07:10:27;44.10;;;39.88;;
48588;SDS011;34369;51.174;6.738;2022-08-19T07:13:01;45.05;;;40.55;;
48588;SDS011;34369;51.174;6.738;2022-08-19T07:15:35;45.17;;;40.90;;
48588;SDS011;34369;51.174;6.738;2022-08-19T07:18:09;43.60;;;39.17;;
48588;SDS011;34369;51.174;6.738;2022-08-19T07:20:41;42.75;;;37.60;;
48588;SDS011;34369;51.174;6.738;2022-08-19T07:23:13;44.65;;;40.05;;
48588;SDS011;34369;51.174;6.738;2022-08-19T07:25:45;44.75;;;40.45;;
48588;SDS011;34369;51.174;6.738;2022-08-19T07:28:17;53.88;;;48.75;;
48588;SDS011;34369;51.174;6.738;2022-08-19T07:30:50;53.45;;;48.20;;
48588;SDS011;34369;51.174;6.738;2022-08-19T07:33:24;52.53;;;47.53;;
48588;SDS011;34369;51.174;6.738;2022-08-19T07:35:56;54.08;;;48.83;;
48588;SDS011;34369;51.174;6.738;2022-08-19T07:38:28;53.95;;;48.85;;
48588;SDS011;34369;51.174;6.738;2022-08-19T07:41:00;41.50;;;37.25;;
48588;SDS011;34369;51.174;6.738;2022-08-19T07:43:32;43.95;;;39.80;;
48588;SDS011;34369;51.174;6.738;2022-08-19T07:46:05;37.65;;;33.88;;
48588;SDS011;34369;51.174;6.738;2022-08-19T07:48:40;38.08;;;34.30;;
48588;SDS011;34369;51.174;6.738;2022-08-19T07:51:16;46.60;;;42.28;;
48588;SDS011;34369;51.174;6.738;2022-08-19T07:53:52;41.67;;;37.67;;
48588;SDS011;34369;51.174;6.738;2022-08-19T07:56:24;41.03;;;37.13;;
48588;SDS011;34369;51.174;6.738;2022-08-19T07:58:57;37.47;;;33.75;;
48588;SDS011;34369;51.174;6.738;2022-08-19T08:01:29;38.80;;;35.08;;
48588;SDS011;34369;51.174;6.738;2022-08-19T08:04:02;38.85;;;35.00;;
48588;SDS011;34369;51.174;6.738;2022-08-19T08:06:52;41.10;;;37.08;;
48588;SDS011;34369;51.174;6.738;2022-08-19T08:09:42;42.65;;;33.88;;
48588;SDS011;34369;51.174;6.738;2022-08-19T08:12:16;38.47;;;34.38;;
48588;SDS011;34369;51.174;6.738;2022-08-19T08:14:53;40.47;;;36.45;;
48588;SDS011;34369;51.174;6.738;2022-08-19T08:17:27;39.35;;;35.22;;
48588;SDS011;34369;51.174;6.738;2022-08-19T08:20:02;40.17;;;35.83;;
48588;SDS011;34369;51.174;6.738;2022-08-19T08:22:36;40.28;;;35.33;;
48588;SDS011;34369;51.174;6.738;2022-08-19T08:25:26;40.05;;;35.95;;
48588;SDS011;34369;51.174;6.738;2022-08-19T08:27:58;41.13;;;36.42;;
48588;SDS011;34369;51.174;6.738;2022-08-19T08:30:30;39.03;;;35.05;;
48588;SDS011;34369;51.174;6.738;2022-08-19T08:33:05;40.97;;;36.67;;
48588;SDS011;34369;51.174;6.738;2022-08-19T08:35:39;38.95;;;34.90;;
48588;SDS011;34369;51.174;6.738;2022-08-19T08:38:12;41.58;;;37.17;;
48588;SDS011;34369;51.174;6.738;2022-08-19T08:40:46;40.80;;;34.67;;
48588;SDS011;34369;51.174;6.738;2022-08-19T08:43:24;37.75;;;33.75;;
48588;SDS011;34369;51.174;6.738;2022-08-19T08:46:03;36.75;;;32.80;;
48588;SDS011;34369;51.174;6.738;2022-08-19T08:48:39;37.60;;;33.70;;
48588;SDS011;34369;51.174;6.738;2022-08-19T08:51:20;38.10;;;34.08;;
48588;SDS011;34369;51.174;6.738;2022-08-19T08:53:57;38.15;;;34.10;;
48588;SDS011;34369;51.174;6.738;2022-08-19T08:56:29;44.65;;;39.88;;
48588;SDS011;34369;51.174;6.738;2022-08-19T08:59:03;40.17;;;36.13;;
48588;SDS011;34369;51.174;6.738;2022-08-19T09:01:41;34.40;;;30.77;;
48588;SDS011;34369;51.174;6.738;2022-08-19T09:04:13;32.08;;;28.73;;
48588;SDS011;34369;51.174;6.738;2022-08-19T09:06:49;31.33;;;28.08;;
48588;SDS011;34369;51.174;6.738;2022-08-19T09:09:28;30.85;;;27.73;;
48588;SDS011;34369;51.174;6.738;2022-08-19T09:12:06;32.65;;;27.90;;
48588;SDS011;34369;51.174;6.738;2022-08-19T09:14:50;31.05;;;27.75;;
48588;SDS011;34369;51.174;6.738;2022-08-19T09:17:27;30.27;;;27.08;;
48588;SDS011;34369;51.174;6.738;2022-08-19T09:20:06;30.40;;;27.38;;
48588;SDS011;34369;51.174;6.738;2022-08-19T09:22:48;28.48;;;25.65;;
48588;SDS011;34369;51.174;6.738;2022-08-19T09:25:21;38.72;;;33.72;;
48588;SDS011;34369;51.174;6.738;2022-08-19T09:27:54;28.98;;;25.98;;
48588;SDS011;34369;51.174;6.738;2022-08-19T09:30:27;27.75;;;24.98;;
48588;SDS011;34369;51.174;6.738;2022-08-19T09:33:02;26.90;;;24.23;;
48588;SDS011;34369;51.174;6.738;2022-08-19T09:35:35;26.70;;;24.00;;
48588;SDS011;34369;51.174;6.738;2022-08-19T09:38:09;27.00;;;24.20;;
48588;SDS011;34369;51.174;6.738;2022-08-19T09:40:42;24.77;;;22.20;;
48588;SDS011;34369;51.174;6.738;2022-08-19T09:43:14;23.70;;;21.35;;
48588;SDS011;34369;51.174;6.738;2022-08-19T09:45:46;26.15;;;23.48;;
48588;SDS011;34369;51.174;6.738;2022-08-19T09:48:18;25.02;;;22.65;;
48588;SDS011;34369;51.174;6.738;2022-08-19T09:50:51;24.30;;;21.95;;
48588;SDS011;34369;51.174;6.738;2022-08-19T09:53:24;23.48;;;21.27;;
48588;SDS011;34369;51.174;6.738;2022-08-19T09:55:58;22.92;;;20.73;;
48588;SDS011;34369;51.174;6.738;2022-08-19T09:58:31;21.95;;;19.77;;
48588;SDS011;34369;51.174;6.738;2022-08-19T10:01:04;21.60;;;19.40;;
48588;SDS011;34369;51.174;6.738;2022-08-19T10:03:40;22.27;;;20.15;;
48588;SDS011;34369;51.174;6.738;2022-08-19T10:06:12;21.90;;;19.67;;
48588;SDS011;34369;51.174;6.738;2022-08-19T10:08:45;24.85;;;22.33;;
48588;SDS011;34369;51.174;6.738;2022-08-19T10:11:18;21.88;;;19.77;;
48588;SDS011;34369;51.174;6.738;2022-08-19T10:13:51;23.33;;;21.08;;
48588;SDS011;34369;51.174;6.738;2022-08-19T10:16:23;24.45;;;22.13;;
48588;SDS011;34369;51.174;6.738;2022-08-19T10:18:56;26.95;;;24.35;;
48588;SDS011;34369;51.174;6.738;2022-08-19T10:21:29;24.13;;;21.73;;
48588;SDS011;34369;51.174;6.738;2022-08-19T10:26:38;27.00;;;24.23;;
48588;SDS011;34369;51.174;6.738;2022-08-19T10:29:15;22.85;;;20.50;;
48588;SDS011;34369;51.174;6.738;2022-08-19T10:31:47;22.88;;;20.33;;
48588;SDS011;34369;51.174;6.738;2022-08-19T10:34:19;22.27;;;19.92;;
48588;SDS011;34369;51.174;6.738;2022-08-19T10:36:51;20.73;;;18.80;;
48588;SDS011;34369;51.174;6.738;2022-08-19T10:39:25;21.20;;;19.10;;
48588;SDS011;34369;51.174;6.738;2022-08-19T10:41:58;22.75;;;20.20;;
48588;SDS011;34369;51.174;6.738;2022-08-19T10:44:34;21.83;;;19.58;;
48588;SDS011;34369;51.174;6.738;2022-08-19T10:47:06;21.85;;;19.65;;
48588;SDS011;34369;51.174;6.738;2022-08-19T10:49:39;21.25;;;18.73;;
48588;SDS011;34369;51.174;6.738;2022-08-19T10:52:25;22.42;;;20.23;;
48588;SDS011;34369;51.174;6.738;2022-08-19T10:55:08;22.63;;;20.40;;
48588;SDS011;34369;51.174;6.738;2022-08-19T10:57:57;23.67;;;21.33;;
48588;SDS011;34369;51.174;6.738;2022-08-19T11:00:29;22.60;;;19.95;;
48588;SDS011;34369;51.174;6.738;2022-08-19T11:03:02;28.02;;;20.30;;
48588;SDS011;34369;51.174;6.738;2022-08-19T11:05:34;20.33;;;18.33;;
48588;SDS011;34369;51.174;6.738;2022-08-19T11:08:07;23.15;;;20.75;;
48588;SDS011;34369;51.174;6.738;2022-08-19T11:10:43;20.95;;;18.75;;
48588;SDS011;34369;51.174;6.738;2022-08-19T11:13:14;20.27;;;18.38;;
48588;SDS011;34369;51.174;6.738;2022-08-19T11:15:46;21.58;;;19.27;;
48588;SDS011;34369;51.174;6.738;2022-08-19T11:18:18;21.55;;;19.23;;
48588;SDS011;34369;51.174;6.738;2022-08-19T11:20:50;20.30;;;18.30;;
48588;SDS011;34369;51.174;6.738;2022-08-19T11:23:22;21.30;;;19.02;;
48588;SDS011;34369;51.174;6.738;2022-08-19T11:25:59;19.17;;;17.20;;
48588;SDS011;34369;51.174;6.738;2022-08-19T11:28:31;19.73;;;17.65;;
48588;SDS011;34369;51.174;6.738;2022-08-19T11:31:03;20.38;;;18.20;;
48588;SDS011;34369;51.174;6.738;2022-08-19T11:33:36;18.88;;;17.13;;
48588;SDS011;34369;51.174;6.738;2022-08-19T11:36:08;18.20;;;16.40;;
48588;SDS011;34369;51.174;6.738;2022-08-19T11:38:41;17.50;;;15.73;;
48588;SDS011;34369;51.174;6.738;2022-08-19T11:41:18;18.00;;;16.30;;
48588;SDS011;34369;51.174;6.738;2022-08-19T11:43:53;18.17;;;16.25;;
48588;SDS011;34369;51.174;6.738;2022-08-19T11:46:26;17.50;;;15.70;;
48588;SDS011;34369;51.174;6.738;2022-08-19T11:48:59;17.15;;;15.35;;
48588;SDS011;34369;51.174;6.738;2022-08-19T11:51:33;17.63;;;15.75;;
48588;SDS011;34369;51.174;6.738;2022-08-19T11:54:05;17.58;;;15.88;;
48588;SDS011;34369;51.174;6.738;2022-08-19T11:56:39;17.85;;;15.90;;
48588;SDS011;34369;51.174;6.738;2022-08-19T11:59:12;17.42;;;15.48;;
48588;SDS011;34369;51.174;6.738;2022-08-19T12:01:44;17.13;;;15.32;;
48588;SDS011;34369;51.174;6.738;2022-08-19T12:04:16;16.70;;;15.00;;
48588;SDS011;34369;51.174;6.738;2022-08-19T12:06:48;15.98;;;14.27;;
48588;SDS011;34369;51.174;6.738;2022-08-19T12:09:21;17.90;;;15.68;;
48588;SDS011;34369;51.174;6.738;2022-08-19T12:11:54;16.83;;;15.13;;
48588;SDS011;34369;51.174;6.738;2022-08-19T12:14:26;20.98;;;15.73;;
48588;SDS011;34369;51.174;6.738;2022-08-19T12:17:00;17.80;;;16.00;;
48588;SDS011;34369;51.174;6.738;2022-08-19T12:19:36;18.23;;;14.70;;
48588;SDS011;34369;51.174;6.738;2022-08-19T12:22:09;20.57;;;16.33;;
48588;SDS011;34369;51.174;6.738;2022-08-19T12:24:41;18.25;;;16.40;;
48588;SDS011;34369;51.174;6.738;2022-08-19T12:27:15;19.75;;;16.27;;
48588;SDS011;34369;51.174;6.738;2022-08-19T12:29:47;19.13;;;17.05;;
48588;SDS011;34369;51.174;6.738;2022-08-19T12:32:19;15.57;;;13.98;;
48588;SDS011;34369;51.174;6.738;2022-08-19T12:34:51;16.02;;;14.38;;
48588;SDS011;34369;51.174;6.738;2022-08-19T12:37:24;16.63;;;14.38;;
48588;SDS011;34369;51.174;6.738;2022-08-19T12:39:56;16.40;;;14.80;;
48588;SDS011;34369;51.174;6.738;2022-08-19T12:42:29;17.15;;;15.35;;
48588;SDS011;34369;51.174;6.738;2022-08-19T12:45:02;15.07;;;13.57;;
48588;SDS011;34369;51.174;6.738;2022-08-19T12:47:35;15.68;;;14.10;;
48588;SDS011;34369;51.174;6.738;2022-08-19T12:50:07;14.98;;;13.43;;
48588;SDS011;34369;51.174;6.738;2022-08-19T12:52:40;14.75;;;13.23;;
48588;SDS011;34369;51.174;6.738;2022-08-19T12:55:13;16.88;;;14.07;;
48588;SDS011;34369;51.174;6.738;2022-08-19T12:57:47;18.42;;;14.55;;
48588;SDS011;34369;51.174;6.738;2022-08-19T13:00:20;52.88;;;40.50;;
48588;SDS011;34369;51.174;6.738;2022-08-19T13:02:54;18.98;;;17.00;;
48588;SDS011;34369;51.174;6.738;2022-08-19T13:05:27;16.40;;;14.77;;
48588;SDS011;34369;51.174;6.738;2022-08-19T13:08:03;14.75;;;13.20;;
48588;SDS011;34369;51.174;6.738;2022-08-19T13:10:35;16.33;;;13.35;;
48588;SDS011;34369;51.174;6.738;2022-08-19T13:13:09;17.25;;;13.73;;
48588;SDS011;34369;51.174;6.738;2022-08-19T13:15:41;14.65;;;13.25;;
48588;SDS011;34369;51.174;6.738;2022-08-19T13:18:15;16.48;;;13.68;;
48588;SDS011;34369;51.174;6.738;2022-08-19T13:20:47;14.85;;;13.35;;
48588;SDS011;34369;51.174;6.738;2022-08-19T13:23:19;66.15;;;22.83;;
48588;SDS011;34369;51.174;6.738;2022-08-19T13:25:57;25.85;;;15.27;;
48588;SDS011;34369;51.174;6.738;2022-08-19T13:28:31;20.33;;;15.05;;
48588;SDS011;34369;51.174;6.738;2022-08-19T13:31:19;14.38;;;12.98;;
48588;SDS011;34369;51.174;6.738;2022-08-19T13:34:12;14.63;;;13.23;;
48588;SDS011;34369;51.174;6.738;2022-08-19T13:36:44;14.07;;;12.77;;
48588;SDS011;34369;51.174;6.738;2022-08-19T13:39:16;14.57;;;13.18;;
48588;SDS011;34369;51.174;6.738;2022-08-19T13:41:48;14.90;;;13.50;;
48588;SDS011;34369;51.174;6.738;2022-08-19T13:44:21;14.52;;;13.18;;
48588;SDS011;34369;51.174;6.738;2022-08-19T13:46:54;15.02;;;13.52;;
48588;SDS011;34369;51.174;6.738;2022-08-19T13:49:27;15.48;;;13.85;;
48588;SDS011;34369;51.174;6.738;2022-08-19T13:52:02;15.68;;;14.18;;
48588;SDS011;34369;51.174;6.738;2022-08-19T13:54:35;15.75;;;14.25;;
48588;SDS011;34369;51.174;6.738;2022-08-19T13:57:07;15.02;;;13.50;;
48588;SDS011;34369;51.174;6.738;2022-08-19T13:59:40;15.02;;;13.63;;
48588;SDS011;34369;51.174;6.738;2022-08-19T14:02:12;15.20;;;13.80;;
48588;SDS011;34369;51.174;6.738;2022-08-19T14:04:44;15.80;;;14.20;;
48588;SDS011;34369;51.174;6.738;2022-08-19T14:07:16;15.25;;;13.70;;
48588;SDS011;34369;51.174;6.738;2022-08-19T14:09:48;15.65;;;14.10;;
48588;SDS011;34369;51.174;6.738;2022-08-19T14:12:21;15.15;;;13.75;;
48588;SDS011;34369;51.174;6.738;2022-08-19T14:14:54;14.68;;;13.18;;
48588;SDS011;34369;51.174;6.738;2022-08-19T14:17:26;15.00;;;13.57;;
48588;SDS011;34369;51.174;6.738;2022-08-19T14:19:59;14.98;;;13.48;;
48588;SDS011;34369;51.174;6.738;2022-08-19T14:22:37;14.63;;;13.23;;
48588;SDS011;34369;51.174;6.738;2022-08-19T14:25:11;14.77;;;13.25;;
48588;SDS011;34369;51.174;6.738;2022-08-19T14:27:48;14.70;;;13.30;;
48588;SDS011;34369;51.174;6.738;2022-08-19T14:30:24;17.20;;;13.45;;
48588;SDS011;34369;51.174;6.738;2022-08-19T16:01:03;15.05;;;13.65;;
48588;SDS011;34369;51.174;6.738;2022-08-19T16:04:12;15.15;;;13.75;;
48588;SDS011;34369;51.174;6.738;2022-08-19T16:07:03;15.90;;;14.40;;
48588;SDS011;34369;51.174;6.738;2022-08-19T16:09:44;16.73;;;15.27;;
48588;SDS011;34369;51.174;6.738;2022-08-19T16:12:27;15.60;;;14.23;;
48588;SDS011;34369;51.174;6.738;2022-08-19T16:15:31;15.55;;;14.05;;
48588;SDS011;34369;51.174;6.738;2022-08-19T16:18:39;15.23;;;13.93;;
48588;SDS011;34369;51.174;6.738;2022-08-19T16:21:23;15.38;;;14.02;;
48588;SDS011;34369;51.174;6.738;2022-08-19T16:24:07;15.35;;;13.95;;
48588;SDS011;34369;51.174;6.738;2022-08-19T16:26:46;20.48;;;15.43;;
48588;SDS011;34369;51.174;6.738;2022-08-19T16:29:21;15.75;;;14.25;;
48588;SDS011;34369;51.174;6.738;2022-08-19T16:31:55;16.97;;;15.30;;
48588;SDS011;34369;51.174;6.738;2022-08-19T16:34:37;16.65;;;15.25;;
48588;SDS011;34369;51.174;6.738;2022-08-19T16:37:14;16.35;;;14.85;;
48588;SDS011;34369;51.174;6.738;2022-08-19T16:39:47;16.13;;;14.73;;